createdAt,value
2023-05-05T00:01:48.898Z,17.52
2023-05-05T00:04:17.605Z,17.50
2023-05-05T00:06:45.450Z,17.51
2023-05-05T00:09:13.295Z,17.51
2023-05-05T00:11:41.012Z,17.50
2023-05-05T00:14:08.691Z,17.50
2023-05-05T00:16:36.503Z,17.49
2023-05-05T00:19:05.746Z,17.48
2023-05-05T00:21:33.428Z,17.46
2023-05-05T00:24:01.144Z,17.47
2023-05-05T00:26:28.820Z,17.49
2023-05-05T00:28:56.508Z,17.49
2023-05-05T00:31:24.324Z,17.48
2023-05-05T00:33:52.036Z,17.44
2023-05-05T00:36:21.075Z,17.41
2023-05-05T00:38:48.786Z,17.40
2023-05-05T00:41:16.416Z,17.41
2023-05-05T00:43:44.047Z,17.41
2023-05-05T00:46:19.911Z,17.39
2023-05-05T00:48:47.592Z,17.36
2023-05-05T00:51:16.928Z,17.30
2023-05-05T00:53:46.255Z,17.33
2023-05-05T00:56:14.353Z,17.33
2023-05-05T00:58:42.788Z,17.32
2023-05-05T01:01:12.020Z,17.30
2023-05-05T01:03:40.616Z,17.28
2023-05-05T01:06:17.187Z,17.28
2023-05-05T01:08:56.150Z,17.24
2023-05-05T01:11:28.121Z,17.23
2023-05-05T01:14:01.931Z,17.18
2023-05-05T01:16:31.894Z,17.13
2023-05-05T01:19:02.256Z,17.11
2023-05-05T01:21:33.286Z,16.99
2023-05-05T01:24:34.454Z,17.01
2023-05-05T01:27:21.149Z,16.99
2023-05-05T01:30:02.076Z,16.92
2023-05-05T01:32:33.296Z,16.92
2023-05-05T01:35:02.778Z,16.89
2023-05-05T01:37:31.792Z,16.89
2023-05-05T01:40:01.650Z,16.91
2023-05-05T01:42:30.559Z,16.91
2023-05-05T01:44:58.627Z,16.89
2023-05-05T01:47:27.481Z,16.93
2023-05-05T01:49:56.674Z,16.93
2023-05-05T01:52:25.154Z,16.96
2023-05-05T01:54:53.824Z,16.96
2023-05-05T01:57:22.432Z,16.94
2023-05-05T01:59:51.496Z,16.94
2023-05-05T02:02:20.121Z,16.93
2023-05-05T02:04:49.188Z,16.87
2023-05-05T02:07:18.373Z,16.89
2023-05-05T02:09:46.330Z,16.86
2023-05-05T02:12:14.338Z,16.84
2023-05-05T02:14:43.488Z,16.84
2023-05-05T02:17:12.282Z,16.84
2023-05-05T02:19:41.567Z,16.84
2023-05-05T02:22:09.373Z,16.84
2023-05-05T02:24:38.514Z,16.82
2023-05-05T02:27:07.605Z,16.83
2023-05-05T02:29:36.846Z,16.82
2023-05-05T02:32:07.217Z,16.83
2023-05-05T02:34:37.129Z,16.80
2023-05-05T02:37:08.195Z,16.80
2023-05-05T02:39:43.498Z,16.81
2023-05-05T02:42:12.088Z,16.83
2023-05-05T02:44:42.592Z,16.81
2023-05-05T02:47:10.287Z,16.81
2023-05-05T02:49:38.030Z,16.78
2023-05-05T02:52:05.732Z,16.77
2023-05-05T02:54:33.967Z,16.77
2023-05-05T02:57:03.097Z,16.74
2023-05-05T02:59:34.901Z,16.71
2023-05-05T03:02:11.406Z,16.72
2023-05-05T03:04:40.802Z,16.70
2023-05-05T03:07:12.126Z,16.71
2023-05-05T03:09:41.655Z,16.72
2023-05-05T03:12:12.032Z,16.73
2023-05-05T03:14:42.236Z,16.73
2023-05-05T03:17:10.987Z,16.74
2023-05-05T03:19:39.996Z,16.72
2023-05-05T03:22:07.731Z,16.71
2023-05-05T03:24:35.483Z,16.71
2023-05-05T03:27:03.230Z,16.69
2023-05-05T03:29:32.317Z,16.68
2023-05-05T03:32:00.975Z,16.63
2023-05-05T03:34:28.646Z,16.66
2023-05-05T03:36:56.362Z,16.66
2023-05-05T03:39:24.069Z,16.63
2023-05-05T03:41:51.759Z,16.62
2023-05-05T03:44:19.453Z,16.62
2023-05-05T03:46:48.470Z,16.54
2023-05-05T03:49:16.233Z,16.57
2023-05-05T03:51:44.196Z,16.54
2023-05-05T03:54:11.843Z,16.52
2023-05-05T03:56:39.449Z,16.51
2023-05-05T03:59:08.711Z,16.47
2023-05-05T04:01:36.445Z,16.45
2023-05-05T04:04:05.804Z,16.46
2023-05-05T04:06:33.501Z,16.42
2023-05-05T04:09:01.197Z,16.42
2023-05-05T04:11:28.889Z,16.42
2023-05-05T04:13:56.584Z,16.41
2023-05-05T04:16:24.298Z,16.42
2023-05-05T04:18:52.010Z,16.39
2023-05-05T04:21:21.048Z,16.39
2023-05-05T04:23:49.098Z,16.39
2023-05-05T04:26:16.802Z,16.37
2023-05-05T04:28:44.541Z,16.38
2023-05-05T04:31:12.265Z,16.38
2023-05-05T04:33:39.974Z,16.34
2023-05-05T04:36:08.401Z,16.36
2023-05-05T04:38:37.681Z,16.35
2023-05-05T04:41:07.254Z,16.36
2023-05-05T04:43:34.914Z,16.38
2023-05-05T04:46:02.590Z,16.37
2023-05-05T04:48:30.342Z,16.38
2023-05-05T04:50:58.011Z,16.39
2023-05-05T04:53:25.890Z,16.39
2023-05-05T04:55:54.984Z,16.36
2023-05-05T04:58:22.583Z,16.35
2023-05-05T05:00:50.247Z,16.33
2023-05-05T05:03:17.969Z,16.33
2023-05-05T05:05:45.644Z,16.32
2023-05-05T05:08:13.347Z,16.32
2023-05-05T05:10:41.430Z,16.31
2023-05-05T05:13:12.540Z,16.31
2023-05-05T05:15:40.768Z,16.31
2023-05-05T05:18:08.452Z,16.28
2023-05-05T05:20:36.080Z,16.28
2023-05-05T05:23:04.498Z,16.29
2023-05-05T05:25:32.189Z,16.28
2023-05-05T05:28:09.643Z,16.29
2023-05-05T05:30:39.886Z,16.29
2023-05-05T05:33:07.618Z,16.34
2023-05-05T05:35:35.352Z,16.34
2023-05-05T05:38:03.059Z,16.37
2023-05-05T05:40:31.524Z,16.41
2023-05-05T05:42:59.375Z,16.45
2023-05-05T05:45:27.095Z,16.49
2023-05-05T05:47:56.317Z,16.51
2023-05-05T05:50:24.532Z,16.53
2023-05-05T05:52:52.191Z,16.54
2023-05-05T05:55:19.872Z,16.59
2023-05-05T05:57:47.603Z,16.62
2023-05-05T06:00:16.868Z,16.64
2023-05-05T06:02:44.669Z,16.65
2023-05-05T06:05:13.864Z,16.68
2023-05-05T06:07:41.564Z,16.68
2023-05-05T06:10:25.705Z,16.71
2023-05-05T06:12:54.831Z,16.73
2023-05-05T06:15:22.536Z,16.76
2023-05-05T06:17:50.158Z,16.80
2023-05-05T06:20:19.556Z,16.82
2023-05-05T06:22:47.367Z,16.86
2023-05-05T06:25:15.068Z,16.90
2023-05-05T06:27:42.783Z,16.93
2023-05-05T06:30:11.530Z,16.97
2023-05-05T06:32:39.250Z,17.00
2023-05-05T06:35:08.108Z,17.00
2023-05-05T06:37:37.180Z,17.06
2023-05-05T06:40:05.696Z,17.06
2023-05-05T06:42:33.508Z,17.07
2023-05-05T06:45:01.480Z,17.13
2023-05-05T06:47:29.170Z,17.19
2023-05-05T06:49:56.849Z,17.21
2023-05-05T06:52:24.564Z,17.22
2023-05-05T06:54:53.608Z,17.21
2023-05-05T06:57:21.372Z,17.23
2023-05-05T06:59:49.057Z,17.27
2023-05-05T07:02:17.121Z,17.31
2023-05-05T07:04:45.173Z,17.32
2023-05-05T07:07:12.907Z,17.34
2023-05-05T07:09:41.228Z,17.37
2023-05-05T07:12:10.426Z,17.41
2023-05-05T07:14:38.081Z,17.42
2023-05-05T07:17:06.355Z,17.40
2023-05-05T07:19:34.062Z,17.45
2023-05-05T07:22:01.741Z,17.48
2023-05-05T07:24:29.438Z,17.53
2023-05-05T07:26:57.420Z,17.58
2023-05-05T07:29:26.742Z,17.60
2023-05-05T07:31:54.480Z,17.65
2023-05-05T07:34:22.230Z,17.75
2023-05-05T07:36:49.948Z,17.83
2023-05-05T07:39:19.329Z,17.88
2023-05-05T07:41:47.200Z,17.90
2023-05-05T07:44:14.876Z,17.98
2023-05-05T07:46:43.890Z,18.00
2023-05-05T07:49:11.529Z,18.06
2023-05-05T07:51:39.166Z,18.09
2023-05-05T07:54:06.977Z,18.10
2023-05-05T07:56:34.755Z,18.13
2023-05-05T07:59:02.405Z,18.14
2023-05-05T08:01:30.169Z,18.16
2023-05-05T08:03:59.490Z,18.19
2023-05-05T08:06:27.800Z,18.21
2023-05-05T08:08:55.601Z,18.24
2023-05-05T08:11:23.338Z,18.27
2023-05-05T08:13:51.051Z,18.30
2023-05-05T08:16:19.098Z,18.36
2023-05-05T08:18:46.874Z,18.44
2023-05-05T08:21:16.030Z,18.49
2023-05-05T08:23:43.741Z,18.52
2023-05-05T08:26:11.578Z,18.55
2023-05-05T08:28:39.327Z,18.59
2023-05-05T08:31:07.764Z,18.60
2023-05-05T08:33:35.546Z,18.69
2023-05-05T08:36:03.205Z,18.83
2023-05-05T08:38:32.262Z,18.99
2023-05-05T08:41:00.020Z,19.08
2023-05-05T08:43:27.707Z,19.11
2023-05-05T08:45:56.307Z,19.13
2023-05-05T08:48:24.530Z,19.19
2023-05-05T08:50:57.998Z,19.19
2023-05-05T08:53:40.088Z,19.15
2023-05-05T08:56:08.790Z,19.19
2023-05-05T08:58:38.126Z,19.16
2023-05-05T09:01:07.269Z,19.23
2023-05-05T09:03:35.649Z,19.26
2023-05-05T09:06:03.651Z,19.30
2023-05-05T09:08:32.622Z,19.27
2023-05-05T09:11:01.997Z,19.28
2023-05-05T09:13:31.228Z,19.34
2023-05-05T09:15:59.137Z,19.36
2023-05-05T09:18:27.196Z,19.35
2023-05-05T09:20:55.444Z,19.37
2023-05-05T09:25:01.029Z,19.46
2023-05-05T09:27:28.827Z,19.50
2023-05-05T09:29:56.711Z,19.52
2023-05-05T09:32:24.461Z,19.53
2023-05-05T09:34:59.153Z,19.55
2023-05-05T09:37:30.957Z,19.57
2023-05-05T09:40:01.588Z,19.60
2023-05-05T09:42:29.274Z,19.61
2023-05-05T09:44:59.787Z,19.68
2023-05-05T09:47:35.549Z,19.71
2023-05-05T09:50:04.179Z,19.78
2023-05-05T09:52:32.092Z,19.82
2023-05-05T09:55:01.145Z,19.96
2023-05-05T09:57:30.458Z,20.13
2023-05-05T09:59:58.913Z,20.20
2023-05-05T10:02:34.046Z,20.25
2023-05-05T10:05:06.505Z,20.32
2023-05-05T10:07:34.724Z,20.39
2023-05-05T10:10:04.403Z,20.48
2023-05-05T10:12:32.790Z,20.50
2023-05-05T10:15:02.678Z,20.44
2023-05-05T10:17:32.780Z,20.39
2023-05-05T10:20:01.985Z,20.34
2023-05-05T10:22:30.702Z,20.32
2023-05-05T10:24:59.343Z,20.27
2023-05-05T10:27:29.858Z,20.25
2023-05-05T10:30:03.772Z,20.32
2023-05-05T10:32:56.962Z,20.33
2023-05-05T10:35:23.154Z,20.30
2023-05-05T10:37:51.107Z,20.33
2023-05-05T10:40:18.846Z,20.37
2023-05-05T10:42:50.047Z,20.39
2023-05-05T10:45:17.788Z,20.44
2023-05-05T10:47:45.609Z,20.47
2023-05-05T10:50:17.528Z,20.47
2023-05-05T10:52:49.131Z,20.50
2023-05-05T10:55:18.510Z,20.57
2023-05-05T10:57:47.803Z,20.60
2023-05-05T11:00:50.040Z,20.61
2023-05-05T11:03:21.960Z,20.60
2023-05-05T11:06:14.715Z,20.59
2023-05-05T11:08:43.953Z,20.54
2023-05-05T11:11:12.584Z,20.50
2023-05-05T11:13:41.951Z,20.46
2023-05-05T11:16:44.614Z,20.42
2023-05-05T11:19:48.957Z,20.32
2023-05-05T11:22:17.577Z,20.22
2023-05-05T11:24:45.698Z,20.02
2023-05-05T11:27:13.493Z,19.69
2023-05-05T11:30:08.209Z,19.20
2023-05-05T11:32:36.169Z,18.92
2023-05-05T11:35:04.233Z,18.75
2023-05-05T11:37:31.894Z,18.65
2023-05-05T11:40:07.100Z,18.58
2023-05-05T11:42:35.099Z,18.56
2023-05-05T11:45:03.392Z,18.53
2023-05-05T11:47:35.566Z,18.54
2023-05-05T11:50:21.698Z,18.52
2023-05-05T11:52:49.482Z,18.55
2023-05-05T11:55:22.055Z,18.54
2023-05-05T11:57:49.862Z,18.59
2023-05-05T12:00:18.346Z,18.64
2023-05-05T12:02:47.675Z,18.68
2023-05-05T12:05:21.195Z,18.77
2023-05-05T12:07:49.041Z,18.82
2023-05-05T12:10:23.823Z,18.87
2023-05-05T12:12:53.178Z,18.89
2023-05-05T12:15:29.663Z,18.93
2023-05-05T12:18:01.454Z,18.94
2023-05-05T12:20:30.877Z,18.98
2023-05-05T12:23:01.517Z,19.01
2023-05-05T12:25:36.192Z,19.03
2023-05-05T12:28:03.868Z,19.07
2023-05-05T12:30:31.590Z,19.14
2023-05-05T12:33:04.188Z,19.16
2023-05-05T12:35:32.062Z,19.15
2023-05-05T12:37:59.918Z,19.19
2023-05-05T12:40:47.975Z,19.21
2023-05-05T12:43:26.582Z,19.23
2023-05-05T12:46:05.388Z,19.22
2023-05-05T12:48:34.920Z,19.19
2023-05-05T12:51:15.228Z,19.16
2023-05-05T12:53:42.910Z,19.11
2023-05-05T12:56:36.054Z,18.84
2023-05-05T12:59:04.988Z,18.51
2023-05-05T13:01:33.055Z,18.21
2023-05-05T13:04:15.250Z,17.95
2023-05-05T13:06:44.280Z,17.61
2023-05-05T13:09:24.119Z,17.23
2023-05-05T13:11:51.848Z,16.99
2023-05-05T13:14:19.673Z,16.79
2023-05-05T13:16:47.372Z,16.61
2023-05-05T13:19:16.460Z,16.50
2023-05-05T13:21:44.216Z,16.43
2023-05-05T13:24:22.930Z,16.37
2023-05-05T13:26:56.567Z,16.26
2023-05-05T13:29:28.363Z,16.15
2023-05-05T13:31:58.279Z,16.08
2023-05-05T13:34:28.287Z,16.04
2023-05-05T13:36:56.262Z,16.04
2023-05-05T13:39:24.013Z,16.09
2023-05-05T13:41:51.784Z,16.12
2023-05-05T13:44:19.524Z,16.12
2023-05-05T13:46:47.334Z,16.10
2023-05-05T13:49:15.148Z,16.08
2023-05-05T13:51:45.287Z,16.04
2023-05-05T13:54:13.231Z,16.01
2023-05-05T13:56:41.036Z,16.01
2023-05-05T13:59:09.093Z,16.04
2023-05-05T14:01:37.309Z,16.10
2023-05-05T14:04:06.104Z,16.17
2023-05-05T14:06:34.103Z,16.16
2023-05-05T14:09:05.894Z,16.09
2023-05-05T14:11:33.899Z,16.10
2023-05-05T14:14:01.782Z,16.12
2023-05-05T14:16:29.642Z,16.13
2023-05-05T14:18:57.267Z,16.23
2023-05-05T14:21:24.968Z,16.27
2023-05-05T14:23:52.687Z,16.29
2023-05-05T14:26:21.784Z,16.29
2023-05-05T14:28:50.220Z,16.28
2023-05-05T14:31:18.526Z,16.25
2023-05-05T14:33:46.198Z,16.22
2023-05-05T14:36:14.285Z,16.17
2023-05-05T14:38:42.936Z,16.13
2023-05-05T14:41:11.403Z,16.17
2023-05-05T14:43:40.966Z,16.16
2023-05-05T14:46:08.709Z,16.13
2023-05-05T14:48:36.591Z,16.09
2023-05-05T14:51:04.622Z,16.10
2023-05-05T14:53:32.368Z,16.07
2023-05-05T14:56:00.017Z,16.03
2023-05-05T14:58:27.732Z,16.02
2023-05-05T15:00:56.961Z,16.02
2023-05-05T15:03:24.891Z,16.04
2023-05-05T15:05:52.618Z,16.02
2023-05-05T15:08:20.388Z,16.05
2023-05-05T15:10:48.113Z,16.08
2023-05-05T15:13:16.020Z,16.10
2023-05-05T15:15:45.074Z,16.13
2023-05-05T15:18:14.232Z,16.12
2023-05-05T15:20:41.958Z,16.21
2023-05-05T15:24:01.438Z,16.22
2023-05-05T15:26:29.045Z,16.25
2023-05-05T15:28:56.632Z,16.29
2023-05-05T15:31:24.324Z,16.31
2023-05-05T15:33:52.056Z,16.30
2023-05-05T15:36:22.481Z,16.28
2023-05-05T15:38:50.387Z,16.31
2023-05-05T15:41:19.481Z,16.42
2023-05-05T15:43:47.178Z,16.52
2023-05-05T15:46:14.821Z,16.65
2023-05-05T15:48:42.580Z,16.77
2023-05-05T15:51:12.577Z,16.85
2023-05-05T15:53:40.322Z,16.97
2023-05-05T15:56:08.244Z,17.08
2023-05-05T15:58:37.524Z,17.18
2023-05-05T16:01:05.329Z,17.23
2023-05-05T16:03:33.116Z,17.30
2023-05-05T16:06:00.786Z,17.34
2023-05-05T16:08:29.090Z,17.35
2023-05-05T16:10:56.980Z,17.38
2023-05-05T16:13:24.756Z,17.33
2023-05-05T16:15:53.841Z,17.28
2023-05-05T16:18:21.507Z,17.22
2023-05-05T16:20:49.921Z,17.17
2023-05-05T16:23:17.796Z,17.15
2023-05-05T16:25:45.607Z,17.17
2023-05-05T16:28:13.325Z,17.18
2023-05-05T16:30:42.768Z,17.17
2023-05-05T16:33:11.926Z,17.16
2023-05-05T16:35:39.741Z,17.21
2023-05-05T16:38:07.485Z,17.30
2023-05-05T16:40:37.458Z,17.38
2023-05-05T16:43:05.386Z,17.44
2023-05-05T16:45:33.060Z,17.44
2023-05-05T16:48:00.778Z,17.39
2023-05-05T16:50:29.912Z,17.43
2023-05-05T16:52:57.869Z,17.45
2023-05-05T16:55:25.887Z,17.44
2023-05-05T16:57:53.705Z,17.44
2023-05-05T17:00:21.693Z,17.42
2023-05-05T17:02:50.045Z,17.51
2023-05-05T17:05:18.411Z,17.54
2023-05-05T17:07:48.285Z,17.56
2023-05-05T17:10:16.151Z,17.57
2023-05-05T17:12:43.925Z,17.61
2023-05-05T17:15:11.962Z,17.57
2023-05-05T17:17:41.570Z,17.60
2023-05-05T17:20:12.276Z,17.57
2023-05-05T17:22:40.351Z,17.54
2023-05-05T17:25:10.906Z,17.55
2023-05-05T17:27:39.217Z,17.49
2023-05-05T17:30:08.255Z,17.39
2023-05-05T17:32:36.095Z,17.32
2023-05-05T17:35:03.978Z,17.29
2023-05-05T17:37:32.260Z,17.30
2023-05-05T17:39:59.977Z,17.29
2023-05-05T17:42:32.956Z,17.31
2023-05-05T17:45:00.800Z,17.30
2023-05-05T17:47:28.715Z,17.29
2023-05-05T17:49:57.924Z,17.29
2023-05-05T17:52:26.136Z,17.26
2023-05-05T17:54:53.808Z,17.27
2023-05-05T17:57:22.736Z,17.27
2023-05-05T17:59:53.615Z,17.30
2023-05-05T18:02:21.789Z,17.36
2023-05-05T18:04:49.612Z,17.40
2023-05-05T18:07:17.306Z,17.46
2023-05-05T18:09:45.007Z,17.48
2023-05-05T18:12:12.699Z,17.52
2023-05-05T18:14:40.470Z,17.55
2023-05-05T18:17:09.540Z,17.50
2023-05-05T18:19:38.219Z,17.53
2023-05-05T18:22:06.369Z,17.49
2023-05-05T18:24:34.140Z,17.49
2023-05-05T18:27:01.757Z,17.46
2023-05-05T18:29:29.481Z,17.44
2023-05-05T18:31:57.214Z,17.42
2023-05-05T18:34:26.379Z,17.35
2023-05-05T18:36:55.094Z,17.36
2023-05-05T18:39:22.752Z,17.33
2023-05-05T18:41:50.654Z,17.31
2023-05-05T18:44:19.463Z,17.28
2023-05-05T18:46:47.933Z,17.27
2023-05-05T18:49:16.312Z,17.27
2023-05-05T18:51:45.370Z,17.24
2023-05-05T18:54:13.138Z,17.23
2023-05-05T18:56:40.893Z,17.20
2023-05-05T18:59:08.599Z,17.16
2023-05-05T19:01:36.341Z,17.16
2023-05-05T19:04:05.425Z,17.13
2023-05-05T19:06:36.275Z,17.10
2023-05-05T19:09:05.445Z,17.07
2023-05-05T19:11:33.055Z,17.02
2023-05-05T19:14:00.678Z,16.99
2023-05-05T19:16:30.047Z,16.96
2023-05-05T19:18:58.789Z,16.94
2023-05-05T19:21:27.461Z,16.91
2023-05-05T19:23:55.132Z,16.89
2023-05-05T19:26:25.011Z,16.83
2023-05-05T19:28:55.186Z,16.83
2023-05-05T19:31:27.410Z,16.82
2023-05-05T19:34:05.275Z,16.79
2023-05-05T19:36:33.377Z,16.76
2023-05-05T19:39:01.645Z,16.73
2023-05-05T19:41:30.845Z,16.71
2023-05-05T19:43:58.644Z,16.68
2023-05-05T19:46:26.870Z,16.63
2023-05-05T19:48:54.673Z,16.62
2023-05-05T19:51:22.339Z,16.58
2023-05-05T19:53:50.400Z,16.56
2023-05-05T19:56:18.083Z,16.53
2023-05-05T19:58:56.496Z,16.51
2023-05-05T20:01:24.586Z,16.51
2023-05-05T20:03:54.335Z,16.46
2023-05-05T20:06:23.871Z,16.43
2023-05-05T20:08:51.589Z,16.39
2023-05-05T20:11:21.089Z,16.35
2023-05-05T20:13:49.246Z,16.34
2023-05-05T20:16:18.437Z,16.29
2023-05-05T20:18:46.281Z,16.32
2023-05-05T20:21:14.015Z,16.32
2023-05-05T20:23:43.006Z,16.30
2023-05-05T20:26:11.321Z,16.30
2023-05-05T20:28:40.829Z,16.30
2023-05-05T20:31:10.879Z,16.25
2023-05-05T20:33:40.086Z,16.27
2023-05-05T20:36:08.168Z,16.23
2023-05-05T20:38:35.880Z,16.23
2023-05-05T20:41:03.601Z,16.21
2023-05-05T20:43:31.290Z,16.20
2023-05-05T20:45:58.987Z,16.17
2023-05-05T20:48:26.856Z,16.11
2023-05-05T20:50:55.940Z,16.05
2023-05-05T20:53:25.365Z,16.07
2023-05-05T20:55:53.035Z,16.04
2023-05-05T20:58:20.971Z,16.03
2023-05-05T21:00:48.746Z,16.01
2023-05-05T21:03:16.492Z,15.98
2023-05-05T21:05:44.707Z,15.97
2023-05-05T21:08:13.808Z,15.94
2023-05-05T21:10:41.495Z,15.93
2023-05-05T21:13:09.247Z,15.90
2023-05-05T21:15:37.434Z,15.89
2023-05-05T21:18:05.583Z,15.88
2023-05-05T21:20:33.283Z,15.85
2023-05-05T21:23:01.017Z,15.85
2023-05-05T21:25:30.605Z,15.84
2023-05-05T21:27:58.301Z,15.81
2023-05-05T21:30:26.148Z,15.78
2023-05-05T21:32:53.957Z,15.74
2023-05-05T21:35:21.859Z,15.71
2023-05-05T21:37:50.020Z,15.69
2023-05-05T21:40:17.777Z,15.68
2023-05-05T21:42:46.841Z,15.65
2023-05-05T21:45:14.526Z,15.63
2023-05-05T21:47:42.306Z,15.63
2023-05-05T21:50:11.036Z,15.59
2023-05-05T21:52:38.972Z,15.59
2023-05-05T21:55:07.577Z,15.58
2023-05-05T21:57:35.259Z,15.54
2023-05-05T22:00:05.655Z,15.55
2023-05-05T22:02:34.278Z,15.52
2023-05-05T22:05:01.998Z,15.47
2023-05-05T22:07:31.017Z,15.47
2023-05-05T22:09:59.365Z,15.44
2023-05-05T22:12:27.028Z,15.43
2023-05-05T22:14:54.757Z,15.40
2023-05-05T22:17:23.901Z,15.38
2023-05-05T22:19:51.787Z,15.34
2023-05-05T22:22:19.469Z,15.34
2023-05-05T22:24:47.090Z,15.33
2023-05-05T22:27:14.807Z,15.31
2023-05-05T22:29:42.499Z,15.29
2023-05-05T22:32:10.154Z,15.28
2023-05-05T22:34:39.264Z,15.25
2023-05-05T22:37:07.408Z,15.24
2023-05-05T22:39:35.115Z,15.23
2023-05-05T22:42:03.702Z,15.18
2023-05-05T22:44:31.378Z,15.18
2023-05-05T22:46:59.259Z,15.16
2023-05-05T22:49:27.716Z,15.16
2023-05-05T22:51:57.220Z,15.14
2023-05-05T22:54:24.983Z,15.11
2023-05-05T22:56:52.725Z,15.07
2023-05-05T22:59:20.412Z,15.04
2023-05-05T23:01:48.083Z,15.04
2023-05-05T23:04:15.798Z,15.00
2023-05-05T23:06:44.874Z,14.99
2023-05-05T23:09:14.026Z,14.96
2023-05-05T23:11:41.699Z,14.93
2023-05-05T23:14:09.443Z,14.92
2023-05-05T23:16:37.122Z,14.90
2023-05-05T23:19:04.768Z,14.87
2023-05-05T23:21:36.273Z,14.84
2023-05-05T23:24:10.411Z,14.81
2023-05-05T23:26:39.468Z,14.80
2023-05-05T23:29:07.302Z,14.74
2023-05-05T23:31:35.256Z,14.74
2023-05-05T23:34:03.479Z,14.68
2023-05-05T23:36:31.200Z,14.69
2023-05-05T23:38:58.880Z,14.67
2023-05-05T23:41:26.660Z,14.62
2023-05-05T23:43:55.688Z,14.64
2023-05-05T23:46:23.986Z,14.64
2023-05-05T23:48:52.028Z,14.64
2023-05-05T23:51:19.716Z,14.63
2023-05-05T23:53:47.444Z,14.62
2023-05-05T23:56:15.254Z,14.55
2023-05-05T23:58:42.927Z,14.60
